Time;durP1;ratioP1;P1;durP2;ratioP2;P2;SDS_P1;SDS_P2;PMS_P1;PMS_P2;Temp;Humidity;BMP_temperature;BMP_pressure;BME280_temperature;BME280_humidity;BME280_pressure;Samples;Min_cycle;Max_cycle;Signal;HPM_P1;HPM_P2
2024/01/06 00:01:39;;;;;;;8.60;7.43;;;;;;;;;;5043010;28;20041;-61
2024/01/06 00:04:05;;;;;;;7.70;6.80;;;;;;;;;;5048032;28;20039;-61
2024/01/06 00:06:31;;;;;;;7.93;7.13;;;;;;;;;;5041706;28;20037;-60
2024/01/06 00:08:57;;;;;;;7.88;6.85;;;;;;;;;;5039177;28;20043;-61
2024/01/06 00:11:23;;;;;;;10.02;8.25;;;;;;;;;;5039031;28;20046;-60
2024/01/06 00:13:49;;;;;;;9.50;8.00;;;;;;;;;;5042059;28;20609;-61
2024/01/06 00:16:19;;;;;;;8.45;7.40;;;;;;;;;;5042035;28;20044;-61
2024/01/06 00:18:46;;;;;;;7.82;7.03;;;;;;;;;;5042187;28;20037;-60
2024/01/06 00:21:12;;;;;;;9.60;7.93;;;;;;;;;;5034974;28;20041;-61
2024/01/06 00:23:38;;;;;;;8.20;7.32;;;;;;;;;;5042726;28;20437;-61
2024/01/06 00:26:04;;;;;;;7.80;7.00;;;;;;;;;;5041041;28;20096;-60
2024/01/06 00:28:30;;;;;;;7.05;6.35;;;;;;;;;;5045260;28;20516;-63
2024/01/06 00:30:56;;;;;;;7.50;6.78;;;;;;;;;;5044746;28;20463;-59
2024/01/06 00:33:22;;;;;;;7.32;6.63;;;;;;;;;;5041874;28;20513;-59
2024/01/06 00:35:48;;;;;;;6.53;5.82;;;;;;;;;;5045709;28;20404;-59
2024/01/06 00:38:14;;;;;;;5.80;5.25;;;;;;;;;;5045745;28;20037;-59
2024/01/06 00:40:40;;;;;;;5.40;4.90;;;;;;;;;;5046356;28;20041;-59
2024/01/06 00:43:06;;;;;;;6.13;5.50;;;;;;;;;;5045790;28;20045;-59
2024/01/06 00:45:32;;;;;;;6.20;5.60;;;;;;;;;;5043372;28;20080;-59
2024/01/06 00:47:58;;;;;;;6.30;5.57;;;;;;;;;;5043450;28;20041;-59
2024/01/06 00:50:24;;;;;;;6.65;5.95;;;;;;;;;;5043526;28;20110;-59
2024/01/06 00:52:53;;;;;;;7.50;6.28;;;;;;;;;;5044297;28;20087;-59
2024/01/06 00:55:20;;;;;;;7.40;6.55;;;;;;;;;;5046054;28;20056;-59
2024/01/06 00:57:46;;;;;;;6.75;6.13;;;;;;;;;;5046083;28;20052;-59
2024/01/06 01:00:12;;;;;;;6.53;5.82;;;;;;;;;;5046428;28;20049;-59
2024/01/06 01:02:39;;;;;;;7.72;6.93;;;;;;;;;;5045178;28;20689;-59
2024/01/06 01:05:07;;;;;;;8.52;6.90;;;;;;;;;;5040897;28;20631;-59
2024/01/06 01:07:33;;;;;;;8.23;6.63;;;;;;;;;;5042449;28;20409;-59
2024/01/06 01:09:59;;;;;;;6.30;5.35;;;;;;;;;;5044765;28;20041;-59
2024/01/06 01:12:25;;;;;;;8.05;6.35;;;;;;;;;;5044848;28;20045;-59
2024/01/06 01:14:51;;;;;;;8.32;6.35;;;;;;;;;;5045774;28;20037;-59
2024/01/06 01:17:17;;;;;;;7.95;6.72;;;;;;;;;;5045069;28;20072;-59
2024/01/06 01:19:44;;;;;;;7.43;6.35;;;;;;;;;;5044677;28;20048;-59
2024/01/06 01:22:10;;;;;;;7.22;6.25;;;;;;;;;;5045602;28;20458;-59
2024/01/06 01:24:36;;;;;;;7.50;6.38;;;;;;;;;;5035456;28;20520;-59
2024/01/06 01:27:02;;;;;;;8.07;6.15;;;;;;;;;;5037581;28;20068;-59
2024/01/06 01:29:28;;;;;;;7.78;6.13;;;;;;;;;;5035424;28;20067;-59
2024/01/06 01:31:54;;;;;;;7.05;5.85;;;;;;;;;;5033540;28;20580;-59
2024/01/06 01:34:20;;;;;;;7.80;6.28;;;;;;;;;;5038729;28;20051;-59
2024/01/06 01:36:46;;;;;;;8.65;6.57;;;;;;;;;;5039353;28;20049;-61
2024/01/06 01:39:12;;;;;;;6.90;5.78;;;;;;;;;;5040725;28;20116;-59
2024/01/06 01:41:38;;;;;;;7.00;6.28;;;;;;;;;;5043192;28;20041;-59
2024/01/06 01:44:04;;;;;;;8.90;7.28;;;;;;;;;;5034208;28;20037;-59
2024/01/06 01:46:30;;;;;;;6.40;5.78;;;;;;;;;;5038799;28;20029;-59
2024/01/06 01:48:57;;;;;;;7.15;6.45;;;;;;;;;;5028781;28;20126;-59
2024/01/06 01:51:25;;;;;;;6.57;5.70;;;;;;;;;;5037185;28;20044;-59
2024/01/06 01:53:51;;;;;;;7.63;6.50;;;;;;;;;;5030615;28;20148;-59
2024/01/06 01:56:17;;;;;;;7.90;6.45;;;;;;;;;;5035427;28;20371;-59
2024/01/06 01:58:43;;;;;;;6.80;6.10;;;;;;;;;;5032112;28;20128;-59
2024/01/06 02:01:09;;;;;;;8.35;6.10;;;;;;;;;;5037556;28;20105;-59
2024/01/06 02:03:35;;;;;;;7.00;6.28;;;;;;;;;;5039095;28;20047;-59
2024/01/06 02:06:02;;;;;;;7.97;6.28;;;;;;;;;;5035850;28;20654;-59
2024/01/06 02:08:28;;;;;;;7.28;5.88;;;;;;;;;;5038955;28;20045;-59
2024/01/06 02:10:56;;;;;;;6.70;5.93;;;;;;;;;;5037650;28;20048;-59
2024/01/06 02:13:22;;;;;;;6.47;5.82;;;;;;;;;;5034253;28;20083;-59
2024/01/06 02:15:48;;;;;;;7.38;5.90;;;;;;;;;;5036327;28;20033;-59
2024/01/06 02:18:14;;;;;;;7.00;5.50;;;;;;;;;;5039449;28;20084;-59
2024/01/06 02:20:44;;;;;;;6.10;4.85;;;;;;;;;;5035139;28;20065;-59
2024/01/06 02:23:10;;;;;;;6.30;5.47;;;;;;;;;;5036528;28;20050;-59
2024/01/06 02:25:36;;;;;;;8.23;6.47;;;;;;;;;;5029610;28;20033;-59
2024/01/06 02:28:02;;;;;;;6.55;5.85;;;;;;;;;;5034583;28;20098;-59
2024/01/06 02:30:28;;;;;;;7.50;6.57;;;;;;;;;;5032218;28;20551;-59
2024/01/06 02:32:54;;;;;;;8.80;7.30;;;;;;;;;;5031678;28;20049;-61
2024/01/06 02:35:21;;;;;;;7.50;5.90;;;;;;;;;;5031807;28;20044;-59
2024/01/06 02:37:47;;;;;;;7.72;6.82;;;;;;;;;;5038392;28;20052;-59
2024/01/06 02:40:14;;;;;;;9.73;6.72;;;;;;;;;;5037010;28;20038;-59
2024/01/06 02:42:39;;;;;;;9.07;7.22;;;;;;;;;;5033716;28;20048;-59
2024/01/06 02:45:07;;;;;;;10.73;7.28;;;;;;;;;;5034468;28;20663;-59
2024/01/06 02:47:33;;;;;;;9.85;8.20;;;;;;;;;;5034256;28;20910;-59
2024/01/06 02:49:59;;;;;;;11.05;9.23;;;;;;;;;;5035606;28;20037;-59
2024/01/06 02:52:25;;;;;;;9.40;7.57;;;;;;;;;;5035532;28;20145;-59
2024/01/06 02:54:51;;;;;;;8.10;6.95;;;;;;;;;;5040779;28;20052;-59
2024/01/06 02:57:17;;;;;;;10.75;8.23;;;;;;;;;;5034267;28;20034;-58
2024/01/06 02:59:43;;;;;;;10.98;8.57;;;;;;;;;;5030575;28;20059;-59
2024/01/06 03:02:09;;;;;;;9.75;8.27;;;;;;;;;;5039183;28;20583;-59
2024/01/06 03:04:35;;;;;;;10.70;8.38;;;;;;;;;;5035687;28;20048;-59
2024/01/06 03:07:01;;;;;;;8.07;7.28;;;;;;;;;;5032982;28;20069;-59
2024/01/06 03:09:28;;;;;;;11.50;8.60;;;;;;;;;;5033010;28;20473;-59
2024/01/06 03:11:54;;;;;;;8.30;7.53;;;;;;;;;;5037675;28;20044;-59
2024/01/06 03:14:20;;;;;;;8.80;7.45;;;;;;;;;;5033691;28;20131;-59
2024/01/06 03:16:46;;;;;;;9.93;8.18;;;;;;;;;;5036071;28;20069;-59
2024/01/06 03:19:12;;;;;;;7.82;7.03;;;;;;;;;;5033208;28;20472;-59
2024/01/06 03:21:38;;;;;;;8.05;6.72;;;;;;;;;;5035591;28;20124;-59
2024/01/06 03:24:04;;;;;;;9.13;6.38;;;;;;;;;;5031400;28;20041;-58
2024/01/06 03:26:30;;;;;;;10.35;8.05;;;;;;;;;;5035771;28;20099;-59
2024/01/06 03:28:58;;;;;;;8.57;7.57;;;;;;;;;;5032700;28;20053;-59
2024/01/06 03:31:24;;;;;;;7.93;6.80;;;;;;;;;;5035369;28;20044;-59
2024/01/06 03:33:51;;;;;;;8.45;7.38;;;;;;;;;;5032620;28;20498;-59
2024/01/06 03:36:17;;;;;;;9.45;7.35;;;;;;;;;;5037196;28;20070;-59
2024/01/06 03:38:43;;;;;;;7.57;6.63;;;;;;;;;;5038341;28;20037;-59
2024/01/06 03:41:09;;;;;;;8.07;7.00;;;;;;;;;;5038814;28;20572;-59
2024/01/06 03:43:35;;;;;;;9.20;6.80;;;;;;;;;;5039503;28;20094;-59
2024/01/06 03:46:01;;;;;;;7.80;6.88;;;;;;;;;;5038580;28;20037;-59
2024/01/06 03:48:27;;;;;;;7.95;6.28;;;;;;;;;;5039787;28;20043;-59
2024/01/06 03:50:53;;;;;;;8.73;7.03;;;;;;;;;;5033342;28;20088;-59
2024/01/06 03:53:19;;;;;;;7.05;6.35;;;;;;;;;;5034092;28;20049;-59
2024/01/06 03:55:45;;;;;;;7.50;6.30;;;;;;;;;;5037090;28;20041;-59
2024/01/06 03:58:11;;;;;;;10.00;6.40;;;;;;;;;;5037506;28;20041;-59
2024/01/06 04:00:37;;;;;;;7.35;5.78;;;;;;;;;;5040197;28;20468;-59
2024/01/06 04:03:04;;;;;;;8.93;7.07;;;;;;;;;;5039063;28;20048;-59
2024/01/06 04:05:30;;;;;;;8.85;7.00;;;;;;;;;;5041676;28;20037;-60
2024/01/06 04:07:56;;;;;;;9.73;7.10;;;;;;;;;;5034963;28;20769;-59
2024/01/06 04:10:22;;;;;;;8.32;6.30;;;;;;;;;;5037939;28;20045;-59
2024/01/06 04:12:48;;;;;;;8.57;6.55;;;;;;;;;;5034473;28;20033;-59
2024/01/06 04:15:14;;;;;;;9.77;7.72;;;;;;;;;;5038394;28;20041;-59
2024/01/06 04:17:40;;;;;;;7.93;7.10;;;;;;;;;;5036103;28;20041;-59
2024/01/06 04:20:06;;;;;;;9.57;6.93;;;;;;;;;;5034077;28;20040;-59
2024/01/06 04:22:32;;;;;;;7.07;6.13;;;;;;;;;;5035341;28;20106;-59
2024/01/06 04:24:58;;;;;;;7.13;6.22;;;;;;;;;;5040084;28;20033;-59
2024/01/06 04:27:24;;;;;;;8.25;6.80;;;;;;;;;;5037900;28;20037;-59
2024/01/06 04:29:52;;;;;;;7.97;6.65;;;;;;;;;;5038753;28;20124;-59
2024/01/06 04:32:19;;;;;;;8.02;6.05;;;;;;;;;;5039730;28;20131;-59
2024/01/06 04:34:45;;;;;;;6.68;5.93;;;;;;;;;;5041494;28;20047;-59
2024/01/06 04:37:11;;;;;;;7.97;6.57;;;;;;;;;;5035005;28;20041;-59
2024/01/06 04:39:37;;;;;;;7.10;6.15;;;;;;;;;;5039994;28;20033;-59
2024/01/06 04:42:03;;;;;;;6.15;5.30;;;;;;;;;;5034900;28;20686;-59
2024/01/06 04:44:29;;;;;;;7.20;5.43;;;;;;;;;;5041488;28;20140;-59
2024/01/06 04:46:55;;;;;;;6.78;6.07;;;;;;;;;;5040181;28;20470;-59
2024/01/06 04:49:21;;;;;;;7.05;5.93;;;;;;;;;;5037136;28;20100;-59
2024/01/06 04:51:47;;;;;;;5.72;5.13;;;;;;;;;;5039610;28;20034;-58
2024/01/06 04:54:13;;;;;;;6.55;5.78;;;;;;;;;;5038582;28;20827;-59
2024/01/06 04:56:39;;;;;;;7.55;6.43;;;;;;;;;;5039791;28;20063;-59
2024/01/06 04:59:06;;;;;;;6.70;6.00;;;;;;;;;;5033982;28;20029;-59
2024/01/06 05:01:32;;;;;;;7.20;5.68;;;;;;;;;;5035371;28;20525;-59
2024/01/06 05:03:58;;;;;;;6.53;5.82;;;;;;;;;;5037353;28;20046;-59
2024/01/06 05:06:25;;;;;;;7.32;5.18;;;;;;;;;;5042795;28;20051;-59
2024/01/06 05:08:51;;;;;;;7.20;6.00;;;;;;;;;;5039547;28;20128;-59
2024/01/06 05:11:17;;;;;;;7.70;6.32;;;;;;;;;;5032536;28;20048;-59
2024/01/06 05:13:43;;;;;;;8.40;6.47;;;;;;;;;;5034876;28;20033;-59
2024/01/06 05:16:09;;;;;;;5.82;5.20;;;;;;;;;;5032970;28;20033;-59
2024/01/06 05:18:35;;;;;;;7.60;6.18;;;;;;;;;;5037509;28;20481;-59
2024/01/06 05:21:02;;;;;;;7.65;5.72;;;;;;;;;;5038937;28;20464;-59
2024/01/06 05:23:28;;;;;;;9.43;5.85;;;;;;;;;;5036461;28;20497;-59
2024/01/06 05:25:54;;;;;;;7.03;5.75;;;;;;;;;;5037039;28;20039;-59
2024/01/06 05:28:19;;;;;;;7.32;6.07;;;;;;;;;;5037880;28;20099;-59
2024/01/06 05:30:46;;;;;;;8.65;6.18;;;;;;;;;;5039465;28;20041;-59
2024/01/06 05:33:13;;;;;;;9.20;7.20;;;;;;;;;;5038326;28;20033;-59
2024/01/06 05:35:39;;;;;;;8.25;6.75;;;;;;;;;;5039937;28;20381;-59
2024/01/06 05:38:05;;;;;;;7.97;6.20;;;;;;;;;;5033621;28;20041;-59
2024/01/06 05:40:31;;;;;;;8.68;5.95;;;;;;;;;;5032887;28;20052;-59
2024/01/06 05:42:57;;;;;;;6.72;5.75;;;;;;;;;;5033823;28;20613;-59
2024/01/06 05:45:23;;;;;;;8.70;6.50;;;;;;;;;;5037508;28;20083;-59
2024/01/06 05:47:49;;;;;;;6.85;5.97;;;;;;;;;;5037767;28;20033;-59
2024/01/06 05:50:16;;;;;;;9.00;6.95;;;;;;;;;;5038265;28;20575;-59
2024/01/06 05:52:42;;;;;;;6.68;5.57;;;;;;;;;;5035969;28;20473;-58
2024/01/06 05:55:11;;;;;;;6.90;5.95;;;;;;;;;;5038978;28;20045;-59
2024/01/06 05:57:37;;;;;;;9.57;7.05;;;;;;;;;;5039326;28;20486;-59
2024/01/06 06:00:04;;;;;;;8.00;6.28;;;;;;;;;;5039811;28;20037;-59
2024/01/06 06:02:31;;;;;;;9.00;6.82;;;;;;;;;;5040307;28;20044;-59
2024/01/06 06:04:57;;;;;;;9.15;7.45;;;;;;;;;;5039957;28;20047;-59
2024/01/06 06:07:23;;;;;;;9.52;6.78;;;;;;;;;;5039276;28;20037;-59
2024/01/06 06:09:49;;;;;;;7.40;6.55;;;;;;;;;;5033851;28;20040;-59
2024/01/06 06:12:15;;;;;;;8.73;6.85;;;;;;;;;;5034339;28;20128;-59
2024/01/06 06:14:41;;;;;;;7.63;6.43;;;;;;;;;;5039530;28;20039;-59
2024/01/06 06:17:07;;;;;;;9.70;6.43;;;;;;;;;;5035112;28;20042;-59
2024/01/06 06:19:33;;;;;;;7.22;5.72;;;;;;;;;;5032887;28;20052;-59
2024/01/06 06:22:00;;;;;;;6.25;5.20;;;;;;;;;;5037296;28;20052;-59
2024/01/06 06:24:26;;;;;;;7.10;5.30;;;;;;;;;;5037118;28;20041;-59
2024/01/06 06:26:52;;;;;;;7.20;6.50;;;;;;;;;;5036742;28;20068;-59
2024/01/06 06:29:18;;;;;;;6.47;5.78;;;;;;;;;;5033642;28;20115;-59
2024/01/06 06:31:44;;;;;;;6.15;5.55;;;;;;;;;;5033114;28;20033;-59
2024/01/06 06:34:10;;;;;;;7.97;5.15;;;;;;;;;;5035068;28;20052;-59
2024/01/06 06:36:37;;;;;;;6.82;5.22;;;;;;;;;;5041206;28;20037;-59
2024/01/06 06:39:04;;;;;;;7.72;5.55;;;;;;;;;;5038869;28;20040;-59
2024/01/06 06:41:30;;;;;;;7.03;6.05;;;;;;;;;;5037878;28;20041;-59
2024/01/06 06:43:56;;;;;;;6.70;5.50;;;;;;;;;;5036495;28;20136;-59
2024/01/06 06:46:22;;;;;;;6.63;5.47;;;;;;;;;;5037356;28;20099;-59
2024/01/06 06:48:48;;;;;;;7.95;6.18;;;;;;;;;;5032136;28;20041;-59
2024/01/06 06:51:14;;;;;;;7.43;6.55;;;;;;;;;;5035247;28;20041;-59
2024/01/06 06:53:40;;;;;;;10.55;6.50;;;;;;;;;;5034898;28;20053;-59
2024/01/06 06:56:06;;;;;;;8.25;6.22;;;;;;;;;;5035567;28;20049;-59
2024/01/06 06:58:33;;;;;;;5.82;5.22;;;;;;;;;;5036611;28;20575;-59
2024/01/06 07:00:59;;;;;;;6.53;5.82;;;;;;;;;;5038961;28;20049;-59
2024/01/06 07:03:26;;;;;;;6.20;5.13;;;;;;;;;;5039303;28;20601;-59
2024/01/06 07:05:55;;;;;;;7.13;5.60;;;;;;;;;;5039163;28;20040;-59
2024/01/06 07:08:21;;;;;;;6.93;5.75;;;;;;;;;;5032164;28;20072;-59
2024/01/06 07:10:47;;;;;;;6.53;5.85;;;;;;;;;;5034020;28;20052;-59
2024/01/06 07:13:13;;;;;;;5.75;5.20;;;;;;;;;;5037078;28;20509;-59
2024/01/06 07:15:39;;;;;;;7.05;5.75;;;;;;;;;;5032048;28;20033;-59
2024/01/06 07:18:06;;;;;;;6.85;5.80;;;;;;;;;;5034601;28;20041;-59
2024/01/06 07:20:32;;;;;;;6.10;5.18;;;;;;;;;;5031945;28;20462;-59
2024/01/06 07:22:58;;;;;;;7.22;5.93;;;;;;;;;;5034931;28;20037;-59
2024/01/06 07:25:24;;;;;;;6.10;5.47;;;;;;;;;;5034320;28;20117;-59
2024/01/06 07:27:50;;;;;;;6.90;5.80;;;;;;;;;;5038293;28;20048;-59
2024/01/06 07:30:16;;;;;;;6.65;5.95;;;;;;;;;;5038922;28;20041;-59
2024/01/06 07:32:42;;;;;;;7.50;6.38;;;;;;;;;;5037071;28;20049;-59
2024/01/06 07:35:08;;;;;;;10.07;7.05;;;;;;;;;;5040526;28;20044;-59
2024/01/06 07:37:37;;;;;;;7.28;6.65;;;;;;;;;;5040921;28;20505;-59
2024/01/06 07:40:03;;;;;;;8.32;6.75;;;;;;;;;;5032541;28;20098;-59
2024/01/06 07:42:29;;;;;;;8.45;6.35;;;;;;;;;;5038551;28;20663;-60
2024/01/06 07:44:55;;;;;;;6.18;5.35;;;;;;;;;;5039512;28;20047;-60
2024/01/06 07:47:21;;;;;;;6.65;5.97;;;;;;;;;;5041074;28;20047;-60
2024/01/06 07:49:48;;;;;;;6.90;6.20;;;;;;;;;;5040157;28;20045;-60
2024/01/06 07:52:14;;;;;;;7.57;6.30;;;;;;;;;;5044965;28;20132;-60
2024/01/06 07:54:40;;;;;;;7.43;6.70;;;;;;;;;;5040948;28;20679;-60
2024/01/06 07:57:06;;;;;;;6.93;6.20;;;;;;;;;;5039751;28;20048;-60
2024/01/06 07:59:32;;;;;;;7.72;6.93;;;;;;;;;;5039232;28;20044;-60
2024/01/06 08:01:58;;;;;;;7.85;6.82;;;;;;;;;;5037466;28;20072;-60
2024/01/06 08:04:24;;;;;;;7.22;5.95;;;;;;;;;;5027482;28;20045;-60
2024/01/06 08:06:50;;;;;;;6.60;6.00;;;;;;;;;;5035120;28;20044;-60
2024/01/06 08:09:16;;;;;;;7.78;6.93;;;;;;;;;;5041309;28;20073;-60
2024/01/06 08:11:45;;;;;;;9.57;7.07;;;;;;;;;;5041804;28;20162;-60
2024/01/06 08:14:11;;;;;;;8.02;6.90;;;;;;;;;;5037604;28;20458;-60
2024/01/06 08:16:37;;;;;;;7.25;6.53;;;;;;;;;;5039914;28;20393;-60
2024/01/06 08:19:03;;;;;;;8.25;6.57;;;;;;;;;;5036998;28;20045;-60
2024/01/06 08:21:29;;;;;;;11.07;8.88;;;;;;;;;;5036700;28;20049;-60
2024/01/06 08:23:55;;;;;;;8.80;7.82;;;;;;;;;;5038353;28;20049;-60
2024/01/06 08:26:22;;;;;;;9.80;8.07;;;;;;;;;;5038034;28;20100;-60
2024/01/06 08:28:48;;;;;;;9.82;8.00;;;;;;;;;;5036104;28;20036;-60
2024/01/06 08:31:14;;;;;;;9.50;8.50;;;;;;;;;;5038944;28;20080;-60
2024/01/06 08:33:40;;;;;;;10.68;8.60;;;;;;;;;;5039199;28;20041;-60
2024/01/06 08:36:06;;;;;;;9.43;8.43;;;;;;;;;;5043253;28;20139;-60
2024/01/06 08:38:32;;;;;;;12.18;8.20;;;;;;;;;;5034725;28;20046;-60
2024/01/06 08:40:58;;;;;;;9.35;8.35;;;;;;;;;;5038137;28;20129;-60
2024/01/06 08:43:24;;;;;;;12.93;10.95;;;;;;;;;;5041031;28;20123;-60
2024/01/06 08:45:50;;;;;;;11.27;8.98;;;;;;;;;;5038709;28;20098;-60
2024/01/06 08:48:18;;;;;;;12.00;9.88;;;;;;;;;;5038894;28;20052;-60
2024/01/06 08:50:45;;;;;;;14.30;9.90;;;;;;;;;;5041817;28;20053;-60
2024/01/06 08:53:11;;;;;;;12.70;9.65;;;;;;;;;;5039393;28;20049;-60
2024/01/06 08:55:37;;;;;;;11.90;9.68;;;;;;;;;;5041584;28;20146;-60
2024/01/06 08:58:03;;;;;;;11.60;9.38;;;;;;;;;;5036899;28;20103;-60
2024/01/06 09:00:29;;;;;;;11.68;8.88;;;;;;;;;;5037269;28;20056;-60
2024/01/06 09:02:55;;;;;;;12.20;9.60;;;;;;;;;;5041041;28;20033;-60
2024/01/06 09:05:21;;;;;;;12.98;9.30;;;;;;;;;;5038965;28;20037;-60
2024/01/06 09:07:50;;;;;;;12.55;9.57;;;;;;;;;;5038134;28;20034;-60
2024/01/06 09:10:16;;;;;;;10.40;8.70;;;;;;;;;;5038282;28;20139;-60
2024/01/06 09:12:42;;;;;;;10.32;7.78;;;;;;;;;;5041025;28;20049;-57
2024/01/06 09:15:08;;;;;;;11.18;8.90;;;;;;;;;;5039759;28;20048;-57
2024/01/06 09:17:34;;;;;;;12.02;9.30;;;;;;;;;;5037837;28;20037;-58
2024/01/06 09:20:01;;;;;;;9.20;8.23;;;;;;;;;;5036128;28;20038;-58
2024/01/06 09:22:27;;;;;;;10.65;7.88;;;;;;;;;;5035169;28;20037;-57
2024/01/06 09:24:53;;;;;;;9.82;8.23;;;;;;;;;;5037730;28;20045;-57
2024/01/06 09:27:19;;;;;;;11.52;8.55;;;;;;;;;;5039838;28;20029;-57
2024/01/06 09:29:45;;;;;;;8.63;7.35;;;;;;;;;;5037654;28;20037;-60
2024/01/06 09:32:12;;;;;;;9.32;7.47;;;;;;;;;;5041187;28;20056;-58
2024/01/06 09:34:39;;;;;;;9.18;8.20;;;;;;;;;;5037328;28;20429;-58
2024/01/06 09:37:05;;;;;;;9.50;7.65;;;;;;;;;;5045210;28;20043;-58
2024/01/06 09:39:31;;;;;;;9.27;8.27;;;;;;;;;;5035321;28;20080;-61
2024/01/06 09:41:57;;;;;;;10.18;8.77;;;;;;;;;;5042730;28;20041;-61
2024/01/06 09:44:24;;;;;;;10.02;8.90;;;;;;;;;;5037807;28;20041;-60
2024/01/06 09:46:50;;;;;;;9.90;8.88;;;;;;;;;;5035935;28;20044;-60
2024/01/06 09:49:23;;;;;;;11.77;8.90;;;;;;;;;;5033207;28;20048;-61
2024/01/06 09:51:51;;;;;;;11.20;8.70;;;;;;;;;;5040496;28;20064;-60
2024/01/06 09:54:20;;;;;;;11.70;8.82;;;;;;;;;;5043068;28;20132;-61
2024/01/06 09:56:47;;;;;;;10.43;8.00;;;;;;;;;;5041659;28;20033;-61
2024/01/06 09:59:13;;;;;;;9.80;8.15;;;;;;;;;;5036864;28;20061;-61
2024/01/06 10:01:40;;;;;;;9.23;8.25;;;;;;;;;;5040866;28;20037;-61
2024/01/06 10:04:06;;;;;;;10.55;8.27;;;;;;;;;;5042017;28;20033;-61
2024/01/06 10:06:33;;;;;;;8.93;8.02;;;;;;;;;;5036000;28;20388;-61
2024/01/06 10:08:59;;;;;;;9.25;7.15;;;;;;;;;;5045657;28;20051;-61
2024/01/06 10:11:26;;;;;;;10.65;7.97;;;;;;;;;;5045947;28;20060;-62
2024/01/06 10:13:53;;;;;;;11.45;9.05;;;;;;;;;;5047818;28;20051;-61
2024/01/06 10:16:20;;;;;;;10.43;8.57;;;;;;;;;;5046681;28;20660;-61
2024/01/06 10:18:46;;;;;;;8.25;6.97;;;;;;;;;;5043625;28;20044;-61
2024/01/06 10:21:13;;;;;;;9.90;7.38;;;;;;;;;;5044452;28;20048;-61
2024/01/06 10:23:42;;;;;;;9.32;7.35;;;;;;;;;;5046132;28;20042;-62
2024/01/06 10:26:12;;;;;;;9.50;7.65;;;;;;;;;;5038984;28;20037;-61
2024/01/06 10:28:38;;;;;;;8.02;7.05;;;;;;;;;;5046535;28;20620;-61
2024/01/06 10:31:04;;;;;;;8.30;6.57;;;;;;;;;;5046180;28;20539;-60
2024/01/06 10:33:33;;;;;;;9.40;6.97;;;;;;;;;;5045447;28;20424;-65
2024/01/06 10:36:00;;;;;;;7.28;6.35;;;;;;;;;;5045989;28;20036;-60
2024/01/06 10:38:29;;;;;;;10.73;7.90;;;;;;;;;;5046277;28;20068;-62
2024/01/06 10:41:06;;;;;;;9.00;6.93;;;;;;;;;;5038628;28;20032;-62
2024/01/06 10:43:38;;;;;;;8.82;7.07;;;;;;;;;;5042429;28;20037;-61
2024/01/06 10:46:04;;;;;;;11.38;7.65;;;;;;;;;;5043489;28;20405;-61
2024/01/06 10:48:34;;;;;;;9.68;6.53;;;;;;;;;;5043185;28;20146;-61
2024/01/06 10:51:02;;;;;;;9.05;6.97;;;;;;;;;;5045482;28;20041;-62
2024/01/06 10:53:28;;;;;;;8.05;6.30;;;;;;;;;;5044499;28;20536;-61
2024/01/06 10:55:54;;;;;;;8.95;7.20;;;;;;;;;;5045071;28;20032;-61
2024/01/06 10:58:20;;;;;;;9.52;7.07;;;;;;;;;;5044669;28;20048;-62
2024/01/06 11:00:47;;;;;;;10.90;8.32;;;;;;;;;;5043319;28;20083;-61
2024/01/06 11:03:14;;;;;;;7.57;6.82;;;;;;;;;;5043413;28;20811;-61
2024/01/06 11:05:42;;;;;;;9.38;6.60;;;;;;;;;;5044386;28;20433;-62
2024/01/06 11:08:08;;;;;;;5.97;5.32;;;;;;;;;;5041215;28;20449;-60
2024/01/06 11:10:36;;;;;;;7.03;6.32;;;;;;;;;;5046688;28;20775;-59
2024/01/06 11:13:10;;;;;;;7.20;6.05;;;;;;;;;;5047868;28;20434;-59
2024/01/06 11:15:42;;;;;;;7.53;6.68;;;;;;;;;;5045998;28;20049;-59
2024/01/06 11:18:08;;;;;;;6.88;6.18;;;;;;;;;;5047417;28;20051;-59
2024/01/06 11:20:34;;;;;;;6.80;6.15;;;;;;;;;;5046082;28;20037;-59
2024/01/06 11:23:23;;;;;;;7.18;6.15;;;;;;;;;;5044547;28;20565;-60
2024/01/06 11:25:49;;;;;;;7.38;6.28;;;;;;;;;;5040808;28;20693;-60
2024/01/06 11:28:17;;;;;;;6.72;5.90;;;;;;;;;;5045205;28;20067;-60
2024/01/06 11:30:43;;;;;;;7.22;6.53;;;;;;;;;;5042534;28;20353;-60
2024/01/06 11:33:10;;;;;;;6.45;5.82;;;;;;;;;;5041598;28;20116;-62
2024/01/06 11:35:38;;;;;;;7.75;6.95;;;;;;;;;;5045132;28;20045;-62
2024/01/06 11:38:07;;;;;;;6.22;5.60;;;;;;;;;;5045079;28;20099;-62
2024/01/06 11:40:37;;;;;;;6.85;5.88;;;;;;;;;;5045015;28;20106;-62
2024/01/06 11:43:11;;;;;;;6.20;5.60;;;;;;;;;;5044337;28;20052;-61
2024/01/06 11:45:38;;;;;;;7.25;6.55;;;;;;;;;;5043679;28;20044;-62
2024/01/06 11:48:05;;;;;;;6.80;6.10;;;;;;;;;;5045466;28;20029;-61
2024/01/06 11:50:32;;;;;;;6.82;5.57;;;;;;;;;;5044223;28;20099;-61
2024/01/06 11:52:59;;;;;;;7.55;6.82;;;;;;;;;;5044534;28;20053;-61
2024/01/06 11:55:31;;;;;;;7.47;6.68;;;;;;;;;;5044426;28;20105;-61
2024/01/06 11:58:01;;;;;;;7.35;6.47;;;;;;;;;;5044148;28;20056;-61
2024/01/06 12:00:27;;;;;;;7.10;6.40;;;;;;;;;;5040467;28;20529;-61
2024/01/06 12:02:57;;;;;;;6.85;6.13;;;;;;;;;;5045267;28;20078;-61
2024/01/06 12:05:24;;;;;;;7.03;5.38;;;;;;;;;;5043619;28;20045;-61
2024/01/06 12:08:00;;;;;;;6.72;6.03;;;;;;;;;;5044339;28;20049;-61
2024/01/06 12:10:28;;;;;;;7.15;6.05;;;;;;;;;;5041672;28;20047;-61
2024/01/06 12:12:58;;;;;;;6.63;5.95;;;;;;;;;;5044551;28;20033;-60
2024/01/06 12:15:24;;;;;;;6.68;5.53;;;;;;;;;;5044609;28;20612;-60
2024/01/06 12:17:50;;;;;;;5.85;5.22;;;;;;;;;;5044161;28;20504;-60
2024/01/06 12:20:16;;;;;;;7.25;6.00;;;;;;;;;;5045129;28;20497;-60
2024/01/06 12:22:44;;;;;;;7.47;5.85;;;;;;;;;;5047098;28;20052;-60
2024/01/06 12:25:10;;;;;;;8.65;6.60;;;;;;;;;;5047360;28;20116;-59
2024/01/06 12:27:36;;;;;;;6.93;6.22;;;;;;;;;;5048096;28;20044;-59
2024/01/06 12:30:02;;;;;;;6.10;5.43;;;;;;;;;;5048350;28;20052;-59
2024/01/06 12:32:28;;;;;;;8.98;5.80;;;;;;;;;;5044537;28;20037;-58
2024/01/06 12:34:55;;;;;;;6.55;5.72;;;;;;;;;;5048900;28;20073;-58
2024/01/06 12:37:23;;;;;;;6.72;5.72;;;;;;;;;;5048515;28;20179;-58
2024/01/06 12:39:49;;;;;;;6.63;5.97;;;;;;;;;;5046377;28;20045;-58
2024/01/06 12:42:19;;;;;;;6.00;5.03;;;;;;;;;;5048268;28;20535;-59
2024/01/06 12:44:45;;;;;;;6.00;5.40;;;;;;;;;;5047869;28;20191;-59
2024/01/06 12:47:12;;;;;;;7.32;6.03;;;;;;;;;;5047434;28;20116;-58
2024/01/06 12:49:38;;;;;;;6.32;5.47;;;;;;;;;;5047841;28;20040;-59
2024/01/06 12:52:04;;;;;;;5.75;4.72;;;;;;;;;;5045283;28;20103;-59
2024/01/06 12:54:30;;;;;;;6.65;5.95;;;;;;;;;;5045898;28;20049;-59
2024/01/06 12:56:56;;;;;;;6.75;5.68;;;;;;;;;;5047568;28;20051;-59
2024/01/06 12:59:22;;;;;;;6.40;5.60;;;;;;;;;;5042902;28;20044;-60
2024/01/06 13:01:49;;;;;;;8.13;6.18;;;;;;;;;;5042970;28;20126;-60
2024/01/06 13:04:15;;;;;;;6.55;5.85;;;;;;;;;;5043003;28;20045;-59
2024/01/06 13:06:42;;;;;;;6.32;5.50;;;;;;;;;;5046919;28;20234;-59
2024/01/06 13:09:09;;;;;;;5.55;5.03;;;;;;;;;;5044911;28;20041;-59
2024/01/06 13:11:36;;;;;;;5.63;4.72;;;;;;;;;;5044322;28;20142;-59
2024/01/06 13:14:02;;;;;;;5.88;5.25;;;;;;;;;;5047258;28;20060;-59
2024/01/06 13:16:28;;;;;;;6.97;5.85;;;;;;;;;;5043678;28;20037;-60
2024/01/06 13:18:54;;;;;;;7.68;6.30;;;;;;;;;;5048063;28;20598;-60
2024/01/06 13:21:20;;;;;;;6.63;5.75;;;;;;;;;;5044935;28;20053;-61
2024/01/06 13:23:46;;;;;;;6.53;5.32;;;;;;;;;;5044883;28;20544;-61
2024/01/06 13:26:12;;;;;;;6.05;5.22;;;;;;;;;;5047167;28;20124;-61
2024/01/06 13:28:38;;;;;;;7.03;5.78;;;;;;;;;;5045859;28;20063;-60
2024/01/06 13:31:04;;;;;;;5.82;5.10;;;;;;;;;;5046209;28;20504;-60
2024/01/06 13:33:30;;;;;;;6.95;5.88;;;;;;;;;;5046253;28;20044;-60
2024/01/06 13:35:56;;;;;;;7.70;5.43;;;;;;;;;;5046519;28;20037;-60
2024/01/06 13:38:22;;;;;;;5.85;5.03;;;;;;;;;;5047206;28;20047;-60
2024/01/06 13:40:48;;;;;;;6.57;5.30;;;;;;;;;;5046818;28;20040;-60
2024/01/06 13:43:15;;;;;;;6.30;5.63;;;;;;;;;;5045269;28;20592;-60
2024/01/06 13:45:43;;;;;;;6.60;4.90;;;;;;;;;;5040168;28;20052;-60
2024/01/06 13:48:09;;;;;;;6.97;5.45;;;;;;;;;;5045740;28;20041;-60
2024/01/06 13:50:35;;;;;;;5.75;4.88;;;;;;;;;;5044075;28;20041;-59
2024/01/06 13:53:02;;;;;;;6.10;5.22;;;;;;;;;;5040205;28;20436;-59
2024/01/06 13:55:29;;;;;;;6.65;5.72;;;;;;;;;;5040210;28;20046;-59
2024/01/06 13:57:55;;;;;;;7.93;6.32;;;;;;;;;;5045966;28;20127;-60
2024/01/06 14:00:21;;;;;;;9.27;6.10;;;;;;;;;;5046847;28;20157;-60
2024/01/06 14:02:47;;;;;;;6.70;5.43;;;;;;;;;;5045654;28;20558;-59
2024/01/06 14:05:13;;;;;;;5.90;4.72;;;;;;;;;;5043934;28;20083;-59
2024/01/06 14:07:44;;;;;;;6.10;4.75;;;;;;;;;;5042291;28;20052;-59
2024/01/06 14:10:10;;;;;;;6.53;5.55;;;;;;;;;;5045879;28;20488;-59
2024/01/06 14:12:36;;;;;;;6.03;5.20;;;;;;;;;;5045034;28;20061;-59
2024/01/06 14:15:03;;;;;;;6.60;5.20;;;;;;;;;;5046241;28;20033;-59
2024/01/06 14:17:29;;;;;;;7.72;5.35;;;;;;;;;;5043766;28;20041;-60
2024/01/06 14:19:55;;;;;;;7.13;5.57;;;;;;;;;;5043537;28;20041;-60
2024/01/06 14:22:21;;;;;;;8.85;6.18;;;;;;;;;;5047096;28;20128;-59
2024/01/06 14:24:47;;;;;;;8.02;6.60;;;;;;;;;;5045695;28;20463;-56
2024/01/06 14:27:13;;;;;;;11.52;7.05;;;;;;;;;;5046435;28;20040;-60
2024/01/06 14:29:39;;;;;;;8.82;6.65;;;;;;;;;;5044177;28;20094;-60
2024/01/06 14:32:06;;;;;;;8.98;6.72;;;;;;;;;;5046411;28;20135;-61
2024/01/06 14:34:32;;;;;;;8.45;6.38;;;;;;;;;;5045492;28;20135;-61
2024/01/06 14:36:57;;;;;;;9.88;7.18;;;;;;;;;;5045644;28;20091;-60